Terminal Aerodrome Forecast
Issued by NWS

Home | Current Version | Previous Version | Text Only | Print | Product List | Glossary Off
Versions: 1 2 3 4 5 6 7 8 9 10 11 12 13 14 15 16 17 18 19 20 21 22 23 24 25 26

000
FTUS43 KGRB 131004 AAA
TAFATW
TAF AMD
KATW 131004Z 1310/1406 13006KT 6SM -SN OVC029
     FM131200 06008KT 1SM -SN OVC013
     FM140100 01010G16KT 5SM -SHSN BKN029
     FM140300 36008KT P6SM SCT040=

USA.gov is the U.S. government's official web portal to all federal, state and local government web resources and services.